createdAt,value
2022-08-28T00:01:07.649Z,48.07
2022-08-28T00:03:34.041Z,48.22
2022-08-28T00:06:00.681Z,48.41
2022-08-28T00:08:28.296Z,48.03
2022-08-28T00:10:54.921Z,48.17
2022-08-28T00:13:21.399Z,48.25
2022-08-28T00:15:48.185Z,48.22
2022-08-28T00:18:14.917Z,48.43
2022-08-28T00:20:41.398Z,47.91
2022-08-28T00:23:08.218Z,48.59
2022-08-28T00:25:34.632Z,48.82
2022-08-28T00:28:01.070Z,49.20
2022-08-28T00:30:32.371Z,49.39
2022-08-28T00:32:58.803Z,49.22
2022-08-28T00:35:25.285Z,50.13
2022-08-28T00:37:51.937Z,51.15
2022-08-28T00:40:28.911Z,50.15
2022-08-28T00:42:59.037Z,50.23
2022-08-28T00:45:25.427Z,49.57
2022-08-28T00:47:51.883Z,49.36
2022-08-28T00:50:18.567Z,48.90
2022-08-28T00:52:45.020Z,48.84
2022-08-28T00:55:11.530Z,48.90
2022-08-28T00:57:38.245Z,48.84
2022-08-28T01:00:04.678Z,50.36
2022-08-28T01:02:31.248Z,50.04
2022-08-28T01:04:57.904Z,51.01
2022-08-28T01:07:24.491Z,51.29
2022-08-28T01:09:51.049Z,51.01
2022-08-28T01:12:18.029Z,50.46
2022-08-28T01:14:44.511Z,49.77
2022-08-28T01:17:11.290Z,50.20
2022-08-28T01:19:38.136Z,51.23
2022-08-28T01:22:04.623Z,51.52
2022-08-28T01:24:31.117Z,51.86
2022-08-28T01:26:57.649Z,51.74
2022-08-28T01:29:24.484Z,52.03
2022-08-28T01:31:50.964Z,51.36
2022-08-28T01:34:17.741Z,50.99
2022-08-28T01:36:44.315Z,51.56
2022-08-28T01:39:11.079Z,51.62
2022-08-28T01:41:37.721Z,51.28
2022-08-28T01:44:04.310Z,51.13
2022-08-28T01:46:30.783Z,51.01
2022-08-28T01:48:57.359Z,51.49
2022-08-28T01:51:24.702Z,53.83
2022-08-28T01:53:51.381Z,54.20
2022-08-28T01:56:18.184Z,52.16
2022-08-28T01:58:44.593Z,51.38
2022-08-28T02:01:11.090Z,51.31
2022-08-28T02:03:37.575Z,50.49
2022-08-28T02:06:04.026Z,50.76
2022-08-28T02:08:30.757Z,50.59
2022-08-28T02:10:57.421Z,50.47
2022-08-28T02:13:25.670Z,49.87
2022-08-28T02:15:52.316Z,49.46
2022-08-28T02:18:19.053Z,49.57
2022-08-28T02:20:45.470Z,50.82
2022-08-28T02:23:11.865Z,50.53
2022-08-28T02:25:38.574Z,51.36
2022-08-28T02:28:05.095Z,50.17
2022-08-28T02:30:31.531Z,50.50
2022-08-28T02:32:57.996Z,50.25
2022-08-28T02:35:24.451Z,49.80
2022-08-28T02:37:50.857Z,49.84
2022-08-28T02:40:21.141Z,49.89
2022-08-28T02:42:47.622Z,50.15
2022-08-28T02:45:14.087Z,51.13
2022-08-28T02:47:40.588Z,51.07
2022-08-28T02:50:07.015Z,51.21
2022-08-28T02:52:33.663Z,51.29
2022-08-28T02:55:00.360Z,51.53
2022-08-28T02:57:26.857Z,50.79
2022-08-28T02:59:53.467Z,50.42
2022-08-28T03:02:20.197Z,51.51
2022-08-28T03:04:46.748Z,50.83
2022-08-28T03:07:13.272Z,50.93
2022-08-28T03:09:40.080Z,52.99
2022-08-28T03:12:06.483Z,53.12
2022-08-28T03:14:32.896Z,53.11
2022-08-28T03:16:59.641Z,51.93
2022-08-28T03:19:26.134Z,51.54
2022-08-28T03:21:53.525Z,52.00
2022-08-28T03:24:20.011Z,51.28
2022-08-28T03:26:46.443Z,51.22
2022-08-28T03:29:12.834Z,50.97
2022-08-28T03:31:39.329Z,51.28
2022-08-28T03:34:05.745Z,50.86
2022-08-28T03:36:32.198Z,50.69
2022-08-28T03:38:58.659Z,51.14
2022-08-28T03:41:25.561Z,50.33
2022-08-28T03:43:52.223Z,50.31
2022-08-28T03:46:19.014Z,50.69
2022-08-28T03:48:45.458Z,50.66
2022-08-28T03:51:12.239Z,50.40
2022-08-28T03:53:38.965Z,50.23
2022-08-28T03:56:05.403Z,50.71
2022-08-28T03:58:31.964Z,50.35
2022-08-28T04:00:59.794Z,50.63
2022-08-28T04:03:26.320Z,50.53
2022-08-28T04:05:52.844Z,50.88
2022-08-28T04:08:19.545Z,51.00
2022-08-28T04:10:45.947Z,50.41
2022-08-28T04:13:12.392Z,50.81
2022-08-28T04:15:39.017Z,50.79
2022-08-28T04:18:05.548Z,50.56
2022-08-28T04:20:32.501Z,50.90
2022-08-28T04:23:00.460Z,50.81
2022-08-28T04:25:27.102Z,50.36
2022-08-28T04:27:53.669Z,50.81
2022-08-28T04:30:20.307Z,50.48
2022-08-28T04:32:46.720Z,50.42
2022-08-28T04:35:13.196Z,50.83
2022-08-28T04:37:39.742Z,50.88
2022-08-28T04:40:06.284Z,50.35
2022-08-28T04:42:32.739Z,50.93
2022-08-28T04:44:59.231Z,50.76
2022-08-28T04:47:25.632Z,50.56
2022-08-28T04:49:52.111Z,51.04
2022-08-28T04:52:19.768Z,50.83
2022-08-28T04:54:46.194Z,50.78
2022-08-28T04:57:12.607Z,50.46
2022-08-28T04:59:39.182Z,50.57
2022-08-28T05:02:05.631Z,51.05
2022-08-28T05:04:32.115Z,50.64
2022-08-28T05:06:59.125Z,51.31
2022-08-28T05:09:25.576Z,50.87
2022-08-28T05:11:52.041Z,51.24
2022-08-28T05:14:18.644Z,50.82
2022-08-28T05:16:45.170Z,50.86
2022-08-28T05:19:11.654Z,50.32
2022-08-28T05:21:38.386Z,50.62
2022-08-28T05:24:04.828Z,50.36
2022-08-28T05:26:31.344Z,51.25
2022-08-28T05:28:57.930Z,51.42
2022-08-28T05:31:24.599Z,51.65
2022-08-28T05:33:51.179Z,52.07
2022-08-28T05:36:18.045Z,51.95
2022-08-28T05:38:44.493Z,51.32
2022-08-28T05:41:10.957Z,50.87
2022-08-28T05:43:37.567Z,51.13
2022-08-28T05:46:04.175Z,51.05
2022-08-28T05:48:32.876Z,51.64
2022-08-28T05:51:03.938Z,52.09
2022-08-28T05:53:30.975Z,51.49
2022-08-28T05:55:57.657Z,52.16
2022-08-28T05:58:24.340Z,51.70
2022-08-28T06:00:50.753Z,51.95
2022-08-28T06:03:17.236Z,52.25
2022-08-28T06:05:43.727Z,53.71
2022-08-28T06:08:10.493Z,52.27
2022-08-28T06:10:37.434Z,51.80
2022-08-28T06:13:05.407Z,51.85
2022-08-28T06:15:31.801Z,51.83
2022-08-28T06:17:58.550Z,52.19
2022-08-28T06:20:25.205Z,52.35
2022-08-28T06:22:52.119Z,52.16
2022-08-28T06:25:18.505Z,51.28
2022-08-28T06:27:44.994Z,51.62
2022-08-28T06:30:11.385Z,52.30
2022-08-28T06:32:37.759Z,51.51
2022-08-28T06:35:04.305Z,53.46
2022-08-28T06:37:30.855Z,52.39
2022-08-28T06:39:57.356Z,53.05
2022-08-28T06:42:23.965Z,53.63
2022-08-28T06:44:50.409Z,52.55
2022-08-28T06:47:16.878Z,51.89
2022-08-28T06:49:43.679Z,50.76
2022-08-28T06:52:10.206Z,50.06
2022-08-28T06:54:36.609Z,50.21
2022-08-28T06:57:04.692Z,51.30
2022-08-28T06:59:31.112Z,51.24
2022-08-28T07:01:57.593Z,50.92
2022-08-28T07:04:24.337Z,51.95
2022-08-28T07:06:54.114Z,51.61
2022-08-28T07:09:21.192Z,52.85
2022-08-28T07:11:47.728Z,52.80
2022-08-28T07:14:14.162Z,52.37
2022-08-28T07:16:40.573Z,52.10
2022-08-28T07:19:07.005Z,51.32
2022-08-28T07:21:33.407Z,51.03
2022-08-28T07:24:04.739Z,50.34
2022-08-28T07:26:31.363Z,52.54
2022-08-28T07:29:10.861Z,51.94
2022-08-28T07:31:37.906Z,50.68
2022-08-28T07:34:04.373Z,51.94
2022-08-28T07:36:30.857Z,50.93
2022-08-28T07:38:57.456Z,50.56
2022-08-28T07:41:23.861Z,50.75
2022-08-28T07:43:50.256Z,50.69
2022-08-28T07:46:16.892Z,50.05
2022-08-28T07:48:43.397Z,49.51
2022-08-28T07:51:09.853Z,49.57
2022-08-28T07:53:37.099Z,49.37
2022-08-28T07:56:03.498Z,49.39
2022-08-28T07:58:29.970Z,48.94
2022-08-28T08:00:56.465Z,49.02
2022-08-28T08:03:22.952Z,48.45
2022-08-28T08:05:49.369Z,48.89
2022-08-28T08:08:16.078Z,49.04
2022-08-28T08:10:42.551Z,49.47
2022-08-28T08:13:08.961Z,49.04
2022-08-28T08:15:35.574Z,49.36
2022-08-28T08:18:02.019Z,50.04
2022-08-28T08:20:28.429Z,51.83
2022-08-28T08:22:54.925Z,50.60
2022-08-28T08:25:21.306Z,50.49
2022-08-28T08:27:47.702Z,51.54
2022-08-28T08:30:14.159Z,50.41
2022-08-28T08:32:40.592Z,49.61
2022-08-28T08:35:06.991Z,49.41
2022-08-28T08:37:33.779Z,49.32
2022-08-28T08:40:00.503Z,49.43
2022-08-28T08:42:27.067Z,50.39
2022-08-28T08:44:53.530Z,50.44
2022-08-28T08:47:19.964Z,50.89
2022-08-28T08:49:46.437Z,50.21
2022-08-28T08:52:12.943Z,49.93
2022-08-28T08:54:39.421Z,49.88
2022-08-28T08:57:05.855Z,49.89
2022-08-28T08:59:32.622Z,49.37
2022-08-28T09:01:59.097Z,49.44
2022-08-28T09:04:25.557Z,49.10
2022-08-28T09:06:52.922Z,48.98
2022-08-28T09:09:19.371Z,49.98
2022-08-28T09:11:45.768Z,51.21
2022-08-28T09:14:17.660Z,51.68
2022-08-28T09:16:47.018Z,51.49
2022-08-28T09:19:13.512Z,51.66
2022-08-28T09:21:42.177Z,50.74
2022-08-28T09:24:10.937Z,51.14
2022-08-28T09:26:37.582Z,50.08
2022-08-28T09:29:04.172Z,52.42
2022-08-28T09:31:30.625Z,51.84
2022-08-28T09:33:57.138Z,52.86
2022-08-28T09:36:23.713Z,53.94
2022-08-28T09:38:50.230Z,54.26
2022-08-28T09:41:16.839Z,53.62
2022-08-28T09:43:43.402Z,52.92
2022-08-28T09:46:09.834Z,53.75
2022-08-28T09:48:36.303Z,55.29
2022-08-28T09:51:02.751Z,54.44
2022-08-28T09:53:29.282Z,57.22
2022-08-28T09:55:55.692Z,57.72
2022-08-28T09:58:22.275Z,56.49
2022-08-28T10:00:48.704Z,57.53
2022-08-28T10:03:15.080Z,55.94
2022-08-28T10:05:41.574Z,53.45
2022-08-28T10:08:08.071Z,56.83
2022-08-28T10:10:34.722Z,57.92
2022-08-28T10:13:01.229Z,57.20
2022-08-28T10:15:27.791Z,55.71
2022-08-28T10:17:54.210Z,55.88
2022-08-28T10:20:20.942Z,54.66
2022-08-28T10:22:47.429Z,54.41
2022-08-28T10:25:13.841Z,56.81
2022-08-28T10:27:40.511Z,55.71
2022-08-28T10:30:11.147Z,55.29
2022-08-28T10:32:39.711Z,54.95
2022-08-28T10:35:06.391Z,55.95
2022-08-28T10:37:32.846Z,57.50
2022-08-28T10:39:59.425Z,58.47
2022-08-28T10:42:26.666Z,56.91
2022-08-28T10:45:02.512Z,55.90
2022-08-28T10:47:29.032Z,55.26
2022-08-28T10:49:55.478Z,54.59
2022-08-28T10:52:21.930Z,54.69
2022-08-28T10:54:48.470Z,53.64
2022-08-28T10:57:14.959Z,55.19
2022-08-28T10:59:42.145Z,53.16
2022-08-28T11:02:08.934Z,52.29
2022-08-28T11:04:35.378Z,52.33
2022-08-28T11:07:02.236Z,49.96
2022-08-28T11:09:29.062Z,49.38
2022-08-28T11:11:59.633Z,51.06
2022-08-28T11:14:28.152Z,50.11
2022-08-28T11:16:54.864Z,51.04
2022-08-28T11:19:21.485Z,51.96
2022-08-28T11:21:48.076Z,50.80
2022-08-28T11:24:16.832Z,51.19
2022-08-28T11:26:45.105Z,51.41
2022-08-28T11:29:11.496Z,50.91
2022-08-28T11:31:38.478Z,50.66
2022-08-28T11:34:04.964Z,49.80
2022-08-28T11:36:33.662Z,51.07
2022-08-28T11:39:00.130Z,50.71
2022-08-28T11:41:26.582Z,51.09
2022-08-28T11:43:53.095Z,51.06
2022-08-28T11:46:23.816Z,51.43
2022-08-28T11:48:50.429Z,50.83
2022-08-28T11:51:16.850Z,50.57
2022-08-28T11:53:43.415Z,50.24
2022-08-28T11:56:10.129Z,50.08
2022-08-28T11:58:36.785Z,48.63
2022-08-28T12:01:03.305Z,48.85
2022-08-28T12:03:29.687Z,49.79
2022-08-28T12:05:56.135Z,51.26
2022-08-28T12:08:22.716Z,49.32
2022-08-28T12:10:49.143Z,50.47
2022-08-28T12:13:15.612Z,49.39
2022-08-28T12:15:42.508Z,48.82
2022-08-28T12:18:09.054Z,51.74
2022-08-28T12:20:35.493Z,53.91
2022-08-28T12:23:01.921Z,53.78
2022-08-28T12:25:28.377Z,54.98
2022-08-28T12:27:54.787Z,53.61
2022-08-28T12:30:21.335Z,54.55
2022-08-28T12:32:47.791Z,55.26
2022-08-28T12:35:16.577Z,53.37
2022-08-28T12:37:52.636Z,53.23
2022-08-28T12:40:19.708Z,50.08
2022-08-28T12:42:46.211Z,53.30
2022-08-28T12:45:12.637Z,53.13
2022-08-28T12:47:39.051Z,54.25
2022-08-28T12:50:05.509Z,52.95
2022-08-28T12:52:32.065Z,54.02
2022-08-28T12:54:58.569Z,53.83
2022-08-28T12:57:25.065Z,52.03
2022-08-28T12:59:51.925Z,50.80
2022-08-28T13:02:18.511Z,50.45
2022-08-28T13:04:45.009Z,50.30
2022-08-28T13:07:11.488Z,51.50
2022-08-28T13:09:37.896Z,50.10
2022-08-28T13:12:06.882Z,49.86
2022-08-28T13:14:33.777Z,50.02
2022-08-28T13:17:00.268Z,50.13
2022-08-28T13:19:26.859Z,51.38
2022-08-28T13:21:53.322Z,49.83
2022-08-28T13:24:19.707Z,51.16
2022-08-28T13:26:46.459Z,50.63
2022-08-28T13:29:12.893Z,50.33
2022-08-28T13:31:39.304Z,50.20
2022-08-28T13:34:05.691Z,51.79
2022-08-28T13:36:32.136Z,50.38
2022-08-28T13:38:58.743Z,51.60
2022-08-28T13:41:25.242Z,49.68
2022-08-28T13:43:51.747Z,48.59
2022-08-28T13:46:18.589Z,48.40
2022-08-28T13:48:45.104Z,48.96
2022-08-28T13:51:19.302Z,48.99
2022-08-28T13:53:47.874Z,50.41
2022-08-28T13:56:14.408Z,49.04
2022-08-28T13:58:40.880Z,47.88
2022-08-28T14:01:07.576Z,49.76
2022-08-28T14:03:34.173Z,48.01
2022-08-28T14:06:00.675Z,48.91
2022-08-28T14:08:27.415Z,50.67
2022-08-28T14:10:54.028Z,48.90
2022-08-28T14:13:20.612Z,49.43
2022-08-28T14:15:47.242Z,51.12
2022-08-28T14:18:13.696Z,52.58
2022-08-28T14:20:40.124Z,50.22
2022-08-28T14:23:06.608Z,50.96
2022-08-28T14:25:38.486Z,48.60
2022-08-28T14:28:05.747Z,49.25
2022-08-28T14:30:32.476Z,49.54
2022-08-28T14:32:58.900Z,48.57
2022-08-28T14:35:25.430Z,48.99
2022-08-28T14:37:52.096Z,48.07
2022-08-28T14:40:18.668Z,50.83
2022-08-28T14:42:45.366Z,48.21
2022-08-28T14:45:12.011Z,47.60
2022-08-28T14:47:38.434Z,47.45
2022-08-28T14:50:04.902Z,47.76
2022-08-28T14:52:31.460Z,47.03
2022-08-28T14:54:57.854Z,47.48
2022-08-28T14:57:24.285Z,47.49
2022-08-28T14:59:50.844Z,47.53
2022-08-28T15:02:17.243Z,47.83
2022-08-28T15:04:43.621Z,46.81
2022-08-28T15:07:10.296Z,45.75
2022-08-28T15:09:36.971Z,47.63
2022-08-28T15:12:03.784Z,49.00
2022-08-28T15:14:30.523Z,48.79
2022-08-28T15:16:57.050Z,48.91
2022-08-28T15:19:23.560Z,46.66
2022-08-28T15:21:50.217Z,49.69
2022-08-28T15:24:16.840Z,51.92
2022-08-28T15:26:43.350Z,51.18
2022-08-28T15:29:10.023Z,54.09
2022-08-28T15:31:36.590Z,52.89
2022-08-28T15:34:03.049Z,53.09
2022-08-28T15:36:29.731Z,54.12
2022-08-28T15:38:56.628Z,52.77
2022-08-28T15:41:24.611Z,54.02
2022-08-28T15:43:51.793Z,53.74
2022-08-28T15:46:18.275Z,52.80
2022-08-28T15:48:45.084Z,52.62
2022-08-28T15:51:13.745Z,53.49
2022-08-28T15:53:40.547Z,53.62
2022-08-28T15:56:07.068Z,51.19
2022-08-28T15:58:33.643Z,50.96
2022-08-28T16:01:00.206Z,52.00
2022-08-28T16:03:26.685Z,51.74
2022-08-28T16:05:53.123Z,51.42
2022-08-28T16:08:19.625Z,51.39
2022-08-28T16:10:46.208Z,51.64
2022-08-28T16:13:12.927Z,52.93
2022-08-28T16:15:39.547Z,57.13
2022-08-28T16:18:05.974Z,57.95
2022-08-28T16:20:32.604Z,57.15
2022-08-28T16:22:59.183Z,53.12
2022-08-28T16:25:25.603Z,53.05
2022-08-28T16:27:52.159Z,56.83
2022-08-28T16:30:18.561Z,54.09
2022-08-28T16:32:46.725Z,52.56
2022-08-28T16:35:13.607Z,55.54
2022-08-28T16:37:40.349Z,56.47
2022-08-28T16:40:06.830Z,58.63
2022-08-28T16:42:33.463Z,56.97
2022-08-28T16:44:59.907Z,56.89
2022-08-28T16:47:26.518Z,58.46
2022-08-28T16:49:53.152Z,57.77
2022-08-28T16:52:19.607Z,56.10
2022-08-28T16:54:46.108Z,54.61
2022-08-28T16:57:15.389Z,53.67
2022-08-28T16:59:41.848Z,53.93
2022-08-28T17:02:08.414Z,51.94
2022-08-28T17:04:39.871Z,52.97
2022-08-28T17:07:06.653Z,52.29
2022-08-28T17:09:33.159Z,52.46
2022-08-28T17:11:59.686Z,51.89
2022-08-28T17:14:26.157Z,51.15
2022-08-28T17:16:52.533Z,50.38
2022-08-28T17:19:19.200Z,51.10
2022-08-28T17:21:45.841Z,50.55
2022-08-28T17:24:12.269Z,50.52
2022-08-28T17:26:39.271Z,51.04
2022-08-28T17:29:05.777Z,51.07
2022-08-28T17:31:32.413Z,51.16
2022-08-28T17:33:59.008Z,50.53
2022-08-28T17:36:33.495Z,51.05
2022-08-28T17:39:01.238Z,50.98
2022-08-28T17:41:27.899Z,51.18
2022-08-28T17:43:54.417Z,51.42
2022-08-28T17:46:21.216Z,50.39
2022-08-28T17:48:54.370Z,50.71
2022-08-28T17:51:23.412Z,50.44
2022-08-28T17:54:03.435Z,51.37
2022-08-28T17:56:33.304Z,51.30
2022-08-28T17:59:02.997Z,51.24
2022-08-28T18:01:29.880Z,50.53
2022-08-28T18:03:56.807Z,49.67
2022-08-28T18:06:23.598Z,51.40
2022-08-28T18:08:50.643Z,50.72
2022-08-28T18:11:18.077Z,50.27
2022-08-28T18:13:44.931Z,49.37
2022-08-28T18:16:11.536Z,49.25
2022-08-28T18:18:38.438Z,50.21
2022-08-28T18:21:04.946Z,50.17
2022-08-28T18:23:31.680Z,49.53
2022-08-28T18:25:58.697Z,49.90
2022-08-28T18:28:25.562Z,50.12
2022-08-28T18:30:52.415Z,49.41
2022-08-28T18:33:19.575Z,49.13
2022-08-28T18:35:49.245Z,48.76
2022-08-28T18:38:16.048Z,48.45
2022-08-28T18:40:42.821Z,48.35
2022-08-28T18:43:09.630Z,48.36
2022-08-28T18:45:36.456Z,48.29
2022-08-28T18:48:03.263Z,48.60
2022-08-28T18:50:30.069Z,48.18
2022-08-28T18:52:56.904Z,48.60
2022-08-28T18:55:23.835Z,48.81
2022-08-28T18:57:51.616Z,48.89
2022-08-28T19:00:21.614Z,48.99
2022-08-28T19:02:48.679Z,49.27
2022-08-28T19:05:15.675Z,49.49
2022-08-28T19:07:42.520Z,49.15
2022-08-28T19:10:28.057Z,49.22
2022-08-28T19:12:57.602Z,49.10
2022-08-28T19:15:24.747Z,48.95
2022-08-28T19:17:51.650Z,49.29
2022-08-28T19:20:18.456Z,49.58
2022-08-28T19:22:45.274Z,49.63
2022-08-28T19:25:27.498Z,49.26
2022-08-28T19:27:59.199Z,49.28
2022-08-28T19:30:25.896Z,49.38
2022-08-28T19:32:52.704Z,49.86
2022-08-28T19:35:19.749Z,49.39
2022-08-28T19:37:46.610Z,49.05
2022-08-28T19:40:13.647Z,50.21
2022-08-28T19:42:40.721Z,51.68
2022-08-28T19:45:07.626Z,50.60
2022-08-28T19:47:35.854Z,52.58
2022-08-28T19:50:05.411Z,52.50
2022-08-28T19:52:32.226Z,52.81
2022-08-28T19:55:02.559Z,52.27
2022-08-28T19:57:30.375Z,56.51
2022-08-28T19:59:57.393Z,53.88
2022-08-28T20:02:25.383Z,53.47
2022-08-28T20:04:52.403Z,52.20
2022-08-28T20:07:19.497Z,51.11
2022-08-28T20:09:46.512Z,51.51
2022-08-28T20:12:13.818Z,52.16
2022-08-28T20:14:40.970Z,52.64
2022-08-28T20:17:08.462Z,53.15
2022-08-28T20:19:35.387Z,52.63
2022-08-28T20:22:02.277Z,53.30
2022-08-28T20:24:30.026Z,53.92
2022-08-28T20:26:56.645Z,54.23
2022-08-28T20:29:23.337Z,56.10
2022-08-28T20:31:50.998Z,54.75
2022-08-28T20:34:17.565Z,54.54
2022-08-28T20:36:44.017Z,55.58
2022-08-28T20:39:12.747Z,53.30
2022-08-28T20:41:39.365Z,55.62
2022-08-28T20:44:06.123Z,55.04
2022-08-28T20:46:35.057Z,56.54
2022-08-28T20:49:05.834Z,57.11
2022-08-28T20:51:32.268Z,56.63
2022-08-28T20:53:58.809Z,57.45
2022-08-28T20:56:25.528Z,56.24
2022-08-28T20:58:52.140Z,54.99
2022-08-28T21:01:20.125Z,54.04
2022-08-28T21:03:48.139Z,54.65
2022-08-28T21:06:14.717Z,56.95
2022-08-28T21:08:41.660Z,55.02
2022-08-28T21:11:08.548Z,56.25
2022-08-28T21:13:35.288Z,55.27
2022-08-28T21:16:03.175Z,53.30
2022-08-28T21:18:31.009Z,53.79
2022-08-28T21:20:57.411Z,53.19
2022-08-28T21:23:24.314Z,52.41
2022-08-28T21:25:50.758Z,52.77
2022-08-28T21:28:18.229Z,53.97
2022-08-28T21:30:45.009Z,53.69
2022-08-28T21:33:11.561Z,54.10
2022-08-28T21:35:38.036Z,53.02
2022-08-28T21:38:04.502Z,54.14
2022-08-28T21:40:31.160Z,53.64
2022-08-28T21:42:57.672Z,52.68
2022-08-28T21:45:24.218Z,52.19
2022-08-28T21:47:51.024Z,53.69
2022-08-28T21:50:17.449Z,54.05
2022-08-28T21:52:44.142Z,53.44
2022-08-28T21:55:10.687Z,52.97
2022-08-28T21:57:39.441Z,51.76
2022-08-28T22:00:07.059Z,52.41
2022-08-28T22:02:33.620Z,53.69
2022-08-28T22:05:00.209Z,54.07
2022-08-28T22:07:27.143Z,53.21
2022-08-28T22:09:54.283Z,55.29
2022-08-28T22:12:20.843Z,53.75
2022-08-28T22:14:47.545Z,53.10
2022-08-28T22:17:14.401Z,54.02
2022-08-28T22:19:46.510Z,53.97
2022-08-28T22:22:13.530Z,53.58
2022-08-28T22:24:41.124Z,54.00
2022-08-28T22:27:07.591Z,53.53
2022-08-28T22:29:34.060Z,54.65
2022-08-28T22:32:03.575Z,54.03
2022-08-28T22:34:30.160Z,53.37
2022-08-28T22:36:59.874Z,52.65
2022-08-28T22:39:26.605Z,52.54
2022-08-28T22:41:54.270Z,52.88
2022-08-28T22:44:20.743Z,53.00
2022-08-28T22:46:47.386Z,52.34
2022-08-28T22:49:13.965Z,52.08
2022-08-28T22:51:40.502Z,53.99
2022-08-28T22:54:07.408Z,53.57
2022-08-28T22:56:33.943Z,53.82
2022-08-28T22:59:00.400Z,55.09
2022-08-28T23:01:26.978Z,56.86
2022-08-28T23:03:53.755Z,57.78
2022-08-28T23:06:20.262Z,56.84
2022-08-28T23:08:47.221Z,54.79
2022-08-28T23:11:13.825Z,53.62
2022-08-28T23:13:42.633Z,53.60
2022-08-28T23:16:09.559Z,54.95
2022-08-28T23:19:06.540Z,56.00
2022-08-28T23:21:22.932Z,55.62
2022-08-28T23:23:49.359Z,55.15
2022-08-28T23:26:15.804Z,54.56
2022-08-28T23:28:45.511Z,56.00
2022-08-28T23:31:11.984Z,56.46
2022-08-28T23:33:38.734Z,54.37
2022-08-28T23:36:05.269Z,55.71
2022-08-28T23:38:31.917Z,54.54
2022-08-28T23:40:58.505Z,53.09
2022-08-28T23:43:25.317Z,53.29
2022-08-28T23:45:51.884Z,55.10
2022-08-28T23:48:18.355Z,53.73
2022-08-28T23:50:45.078Z,53.97
2022-08-28T23:53:11.628Z,53.21
2022-08-28T23:55:38.123Z,53.46
2022-08-28T23:58:04.919Z,54.24
